sensor_id;sensor_type;location;lat;lon;timestamp;temperature;humidity
4755;DHT22;2391;47.212;7.542;2023-06-14T00:01:36;23.50;44.80
4755;DHT22;2391;47.212;7.542;2023-06-14T00:04:04;23.40;45.10
4755;DHT22;2391;47.212;7.542;2023-06-14T00:06:31;23.40;45.20
4755;DHT22;2391;47.212;7.542;2023-06-14T00:08:58;23.30;45.20
4755;DHT22;2391;47.212;7.542;2023-06-14T00:11:24;23.30;45.40
4755;DHT22;2391;47.212;7.542;2023-06-14T00:13:52;23.20;45.30
4755;DHT22;2391;47.212;7.542;2023-06-14T00:16:18;23.10;45.70
4755;DHT22;2391;47.212;7.542;2023-06-14T00:18:45;23.10;45.90
4755;DHT22;2391;47.212;7.542;2023-06-14T00:21:11;23.10;45.90
4755;DHT22;2391;47.212;7.542;2023-06-14T00:23:38;23.00;45.90
4755;DHT22;2391;47.212;7.542;2023-06-14T00:26:03;23.00;46.40
4755;DHT22;2391;47.212;7.542;2023-06-14T00:28:29;22.90;46.00
4755;DHT22;2391;47.212;7.542;2023-06-14T00:30:57;22.90;46.10
4755;DHT22;2391;47.212;7.542;2023-06-14T00:33:23;22.80;45.90
4755;DHT22;2391;47.212;7.542;2023-06-14T00:35:50;22.80;46.00
4755;DHT22;2391;47.212;7.542;2023-06-14T00:38:15;22.70;46.00
4755;DHT22;2391;47.212;7.542;2023-06-14T00:40:41;22.70;45.90
4755;DHT22;2391;47.212;7.542;2023-06-14T00:43:07;22.60;45.70
4755;DHT22;2391;47.212;7.542;2023-06-14T00:45:33;22.60;45.80
4755;DHT22;2391;47.212;7.542;2023-06-14T00:48:01;22.60;45.90
4755;DHT22;2391;47.212;7.542;2023-06-14T00:50:29;22.60;46.00
4755;DHT22;2391;47.212;7.542;2023-06-14T00:52:57;22.50;46.10
4755;DHT22;2391;47.212;7.542;2023-06-14T00:55:23;22.40;46.00
4755;DHT22;2391;47.212;7.542;2023-06-14T00:57:49;22.40;46.00
4755;DHT22;2391;47.212;7.542;2023-06-14T01:00:15;22.40;46.10
4755;DHT22;2391;47.212;7.542;2023-06-14T01:02:41;22.40;46.20
4755;DHT22;2391;47.212;7.542;2023-06-14T01:05:07;22.30;45.90
4755;DHT22;2391;47.212;7.542;2023-06-14T01:10:46;22.20;46.20
4755;DHT22;2391;47.212;7.542;2023-06-14T01:13:21;22.20;46.20
4755;DHT22;2391;47.212;7.542;2023-06-14T01:15:49;22.10;46.30
4755;DHT22;2391;47.212;7.542;2023-06-14T01:18:17;22.00;46.40
4755;DHT22;2391;47.212;7.542;2023-06-14T01:20:45;21.90;46.40
4755;DHT22;2391;47.212;7.542;2023-06-14T01:23:13;21.90;46.50
4755;DHT22;2391;47.212;7.542;2023-06-14T01:25:39;21.80;46.60
4755;DHT22;2391;47.212;7.542;2023-06-14T01:28:06;21.70;46.50
4755;DHT22;2391;47.212;7.542;2023-06-14T01:30:35;21.70;46.50
4755;DHT22;2391;47.212;7.542;2023-06-14T01:33:04;21.60;46.40
4755;DHT22;2391;47.212;7.542;2023-06-14T01:35:30;21.60;46.70
4755;DHT22;2391;47.212;7.542;2023-06-14T01:37:56;21.50;46.80
4755;DHT22;2391;47.212;7.542;2023-06-14T01:40:23;21.50;46.90
4755;DHT22;2391;47.212;7.542;2023-06-14T01:42:50;21.50;46.70
4755;DHT22;2391;47.212;7.542;2023-06-14T01:45:17;21.40;46.70
4755;DHT22;2391;47.212;7.542;2023-06-14T01:47:44;21.40;47.00
4755;DHT22;2391;47.212;7.542;2023-06-14T01:50:11;21.40;47.00
4755;DHT22;2391;47.212;7.542;2023-06-14T01:52:37;21.30;47.60
4755;DHT22;2391;47.212;7.542;2023-06-14T01:55:04;21.30;47.10
4755;DHT22;2391;47.212;7.542;2023-06-14T01:57:31;21.30;47.20
4755;DHT22;2391;47.212;7.542;2023-06-14T01:59:57;21.20;47.10
4755;DHT22;2391;47.212;7.542;2023-06-14T02:02:22;21.20;47.30
4755;DHT22;2391;47.212;7.542;2023-06-14T02:04:48;21.20;47.40
4755;DHT22;2391;47.212;7.542;2023-06-14T02:07:14;21.10;47.20
4755;DHT22;2391;47.212;7.542;2023-06-14T02:09:40;21.00;47.20
4755;DHT22;2391;47.212;7.542;2023-06-14T02:12:08;21.00;47.20
4755;DHT22;2391;47.212;7.542;2023-06-14T02:14:33;20.90;47.30
4755;DHT22;2391;47.212;7.542;2023-06-14T02:16:59;20.90;47.30
4755;DHT22;2391;47.212;7.542;2023-06-14T02:19:26;20.90;47.60
4755;DHT22;2391;47.212;7.542;2023-06-14T02:21:52;20.80;47.40
4755;DHT22;2391;47.212;7.542;2023-06-14T02:24:18;20.80;47.80
4755;DHT22;2391;47.212;7.542;2023-06-14T02:26:44;20.80;47.60
4755;DHT22;2391;47.212;7.542;2023-06-14T02:29:09;20.80;47.70
4755;DHT22;2391;47.212;7.542;2023-06-14T02:31:37;20.80;47.80
4755;DHT22;2391;47.212;7.542;2023-06-14T02:34:03;20.70;47.70
4755;DHT22;2391;47.212;7.542;2023-06-14T02:36:29;20.70;47.90
4755;DHT22;2391;47.212;7.542;2023-06-14T02:38:56;20.70;47.90
4755;DHT22;2391;47.212;7.542;2023-06-14T02:41:26;20.70;48.10
4755;DHT22;2391;47.212;7.542;2023-06-14T02:43:53;20.60;48.00
4755;DHT22;2391;47.212;7.542;2023-06-14T02:46:19;20.60;48.00
4755;DHT22;2391;47.212;7.542;2023-06-14T02:48:45;20.50;47.90
4755;DHT22;2391;47.212;7.542;2023-06-14T02:51:10;20.50;47.90
4755;DHT22;2391;47.212;7.542;2023-06-14T02:53:38;20.50;47.90
4755;DHT22;2391;47.212;7.542;2023-06-14T02:56:04;20.40;47.90
4755;DHT22;2391;47.212;7.542;2023-06-14T02:58:30;20.40;48.00
4755;DHT22;2391;47.212;7.542;2023-06-14T03:00:55;20.40;48.10
4755;DHT22;2391;47.212;7.542;2023-06-14T03:03:21;20.40;48.20
4755;DHT22;2391;47.212;7.542;2023-06-14T03:05:50;20.30;48.40
4755;DHT22;2391;47.212;7.542;2023-06-14T03:08:17;20.20;48.20
4755;DHT22;2391;47.212;7.542;2023-06-14T03:10:46;20.20;48.30
4755;DHT22;2391;47.212;7.542;2023-06-14T03:13:13;20.20;48.40
4755;DHT22;2391;47.212;7.542;2023-06-14T03:15:39;20.10;48.40
4755;DHT22;2391;47.212;7.542;2023-06-14T03:18:09;20.10;48.30
4755;DHT22;2391;47.212;7.542;2023-06-14T03:20:35;20.00;48.40
4755;DHT22;2391;47.212;7.542;2023-06-14T03:23:02;20.00;48.50
4755;DHT22;2391;47.212;7.542;2023-06-14T03:25:28;20.00;48.70
4755;DHT22;2391;47.212;7.542;2023-06-14T03:27:58;20.00;48.80
4755;DHT22;2391;47.212;7.542;2023-06-14T03:30:24;19.90;49.10
4755;DHT22;2391;47.212;7.542;2023-06-14T03:32:50;19.80;49.00
4755;DHT22;2391;47.212;7.542;2023-06-14T03:35:21;19.80;49.00
4755;DHT22;2391;47.212;7.542;2023-06-14T03:37:47;19.80;49.10
4755;DHT22;2391;47.212;7.542;2023-06-14T03:40:15;19.80;49.20
4755;DHT22;2391;47.212;7.542;2023-06-14T03:42:41;19.70;49.30
4755;DHT22;2391;47.212;7.542;2023-06-14T03:45:07;19.70;49.50
4755;DHT22;2391;47.212;7.542;2023-06-14T03:47:34;19.70;49.40
4755;DHT22;2391;47.212;7.542;2023-06-14T03:50:01;19.60;49.50
4755;DHT22;2391;47.212;7.542;2023-06-14T03:52:28;19.60;49.60
4755;DHT22;2391;47.212;7.542;2023-06-14T03:54:53;19.60;49.90
4755;DHT22;2391;47.212;7.542;2023-06-14T03:57:19;19.60;50.00
4755;DHT22;2391;47.212;7.542;2023-06-14T03:59:48;19.50;50.00
4755;DHT22;2391;47.212;7.542;2023-06-14T04:02:13;19.50;50.10
4755;DHT22;2391;47.212;7.542;2023-06-14T04:04:44;19.50;50.30
4755;DHT22;2391;47.212;7.542;2023-06-14T04:07:11;19.50;50.40
4755;DHT22;2391;47.212;7.542;2023-06-14T04:09:38;19.40;50.00
4755;DHT22;2391;47.212;7.542;2023-06-14T04:12:04;19.40;50.60
4755;DHT22;2391;47.212;7.542;2023-06-14T04:14:30;19.40;50.80
4755;DHT22;2391;47.212;7.542;2023-06-14T04:16:58;19.30;51.50
4755;DHT22;2391;47.212;7.542;2023-06-14T04:19:24;19.30;51.30
4755;DHT22;2391;47.212;7.542;2023-06-14T04:21:50;19.30;51.40
4755;DHT22;2391;47.212;7.542;2023-06-14T04:24:16;19.30;51.50
4755;DHT22;2391;47.212;7.542;2023-06-14T04:26:43;19.30;51.70
4755;DHT22;2391;47.212;7.542;2023-06-14T04:29:11;19.30;51.60
4755;DHT22;2391;47.212;7.542;2023-06-14T04:31:38;19.30;51.90
4755;DHT22;2391;47.212;7.542;2023-06-14T04:34:04;19.40;51.80
4755;DHT22;2391;47.212;7.542;2023-06-14T04:36:35;19.40;52.10
4755;DHT22;2391;47.212;7.542;2023-06-14T04:39:04;19.40;52.30
4755;DHT22;2391;47.212;7.542;2023-06-14T04:41:30;19.40;52.50
4755;DHT22;2391;47.212;7.542;2023-06-14T04:43:57;19.40;52.60
4755;DHT22;2391;47.212;7.542;2023-06-14T04:46:25;19.40;52.60
4755;DHT22;2391;47.212;7.542;2023-06-14T04:48:53;19.30;52.80
4755;DHT22;2391;47.212;7.542;2023-06-14T04:51:20;19.40;53.20
4755;DHT22;2391;47.212;7.542;2023-06-14T04:53:48;19.30;53.00
4755;DHT22;2391;47.212;7.542;2023-06-14T04:56:15;19.30;53.40
4755;DHT22;2391;47.212;7.542;2023-06-14T04:58:40;19.30;53.00
4755;DHT22;2391;47.212;7.542;2023-06-14T05:01:06;19.40;53.00
4755;DHT22;2391;47.212;7.542;2023-06-14T05:03:34;19.40;53.10
4755;DHT22;2391;47.212;7.542;2023-06-14T05:06:00;19.30;53.10
4755;DHT22;2391;47.212;7.542;2023-06-14T05:08:26;19.30;52.90
4755;DHT22;2391;47.212;7.542;2023-06-14T05:10:52;19.30;53.20
4755;DHT22;2391;47.212;7.542;2023-06-14T05:13:18;19.40;53.40
4755;DHT22;2391;47.212;7.542;2023-06-14T05:15:44;19.30;52.90
4755;DHT22;2391;47.212;7.542;2023-06-14T05:18:10;19.30;52.70
4755;DHT22;2391;47.212;7.542;2023-06-14T05:20:36;19.30;52.60
4755;DHT22;2391;47.212;7.542;2023-06-14T05:23:03;19.20;53.30
4755;DHT22;2391;47.212;7.542;2023-06-14T05:25:29;19.00;53.90
4755;DHT22;2391;47.212;7.542;2023-06-14T05:27:54;19.00;54.10
4755;DHT22;2391;47.212;7.542;2023-06-14T05:30:20;19.00;54.20
4755;DHT22;2391;47.212;7.542;2023-06-14T05:32:46;19.10;54.60
4755;DHT22;2391;47.212;7.542;2023-06-14T05:35:12;19.10;55.00
4755;DHT22;2391;47.212;7.542;2023-06-14T05:37:37;19.20;54.80
4755;DHT22;2391;47.212;7.542;2023-06-14T05:40:04;19.20;55.70
4755;DHT22;2391;47.212;7.542;2023-06-14T05:42:32;19.10;54.80
4755;DHT22;2391;47.212;7.542;2023-06-14T05:44:58;19.10;54.90
4755;DHT22;2391;47.212;7.542;2023-06-14T05:47:24;19.20;54.80
4755;DHT22;2391;47.212;7.542;2023-06-14T05:49:49;19.20;54.40
4755;DHT22;2391;47.212;7.542;2023-06-14T05:52:15;19.20;54.20
4755;DHT22;2391;47.212;7.542;2023-06-14T05:54:41;19.30;53.70
4755;DHT22;2391;47.212;7.542;2023-06-14T05:57:07;19.20;53.50
4755;DHT22;2391;47.212;7.542;2023-06-14T05:59:34;19.30;53.40
4755;DHT22;2391;47.212;7.542;2023-06-14T06:01:59;19.30;53.50
4755;DHT22;2391;47.212;7.542;2023-06-14T06:04:25;19.40;53.00
4755;DHT22;2391;47.212;7.542;2023-06-14T06:06:51;19.60;52.20
4755;DHT22;2391;47.212;7.542;2023-06-14T06:09:16;19.80;51.90
4755;DHT22;2391;47.212;7.542;2023-06-14T06:11:42;20.10;51.10
4755;DHT22;2391;47.212;7.542;2023-06-14T06:14:08;20.30;50.80
4755;DHT22;2391;47.212;7.542;2023-06-14T06:16:34;20.60;50.40
4755;DHT22;2391;47.212;7.542;2023-06-14T06:18:59;20.80;50.40
4755;DHT22;2391;47.212;7.542;2023-06-14T06:21:25;21.10;50.40
4755;DHT22;2391;47.212;7.542;2023-06-14T06:23:51;21.30;49.70
4755;DHT22;2391;47.212;7.542;2023-06-14T06:26:17;21.60;50.10
4755;DHT22;2391;47.212;7.542;2023-06-14T06:28:43;21.80;49.90
4755;DHT22;2391;47.212;7.542;2023-06-14T06:31:08;22.10;50.30
4755;DHT22;2391;47.212;7.542;2023-06-14T06:33:35;22.40;49.70
4755;DHT22;2391;47.212;7.542;2023-06-14T06:36:02;22.50;48.80
4755;DHT22;2391;47.212;7.542;2023-06-14T06:38:28;22.70;49.20
4755;DHT22;2391;47.212;7.542;2023-06-14T06:40:53;22.80;49.10
4755;DHT22;2391;47.212;7.542;2023-06-14T06:43:19;23.00;48.70
4755;DHT22;2391;47.212;7.542;2023-06-14T06:45:45;23.20;48.30
4755;DHT22;2391;47.212;7.542;2023-06-14T06:48:11;23.30;48.40
4755;DHT22;2391;47.212;7.542;2023-06-14T06:50:37;23.50;49.00
4755;DHT22;2391;47.212;7.542;2023-06-14T06:53:02;23.70;48.70
4755;DHT22;2391;47.212;7.542;2023-06-14T06:55:28;23.80;48.20
4755;DHT22;2391;47.212;7.542;2023-06-14T06:57:54;24.00;47.80
4755;DHT22;2391;47.212;7.542;2023-06-14T07:00:20;24.00;47.90
4755;DHT22;2391;47.212;7.542;2023-06-14T07:02:46;24.10;47.90
4755;DHT22;2391;47.212;7.542;2023-06-14T07:05:12;24.20;48.40
4755;DHT22;2391;47.212;7.542;2023-06-14T07:07:38;24.30;46.80
4755;DHT22;2391;47.212;7.542;2023-06-14T07:10:05;24.40;47.10
4755;DHT22;2391;47.212;7.542;2023-06-14T07:12:31;24.50;46.90
4755;DHT22;2391;47.212;7.542;2023-06-14T07:14:59;24.60;46.90
4755;DHT22;2391;47.212;7.542;2023-06-14T07:17:25;24.70;46.40
4755;DHT22;2391;47.212;7.542;2023-06-14T07:19:51;24.80;47.30
4755;DHT22;2391;47.212;7.542;2023-06-14T07:22:17;24.80;46.90
4755;DHT22;2391;47.212;7.542;2023-06-14T07:24:43;24.70;46.80
4755;DHT22;2391;47.212;7.542;2023-06-14T07:27:09;24.80;47.20
4755;DHT22;2391;47.212;7.542;2023-06-14T07:29:35;24.90;46.50
4755;DHT22;2391;47.212;7.542;2023-06-14T07:32:01;24.90;46.40
4755;DHT22;2391;47.212;7.542;2023-06-14T07:34:27;25.00;46.30
4755;DHT22;2391;47.212;7.542;2023-06-14T07:36:52;25.10;46.40
4755;DHT22;2391;47.212;7.542;2023-06-14T07:39:20;25.20;46.20
4755;DHT22;2391;47.212;7.542;2023-06-14T07:41:46;25.30;45.50
4755;DHT22;2391;47.212;7.542;2023-06-14T07:44:11;25.40;45.40
4755;DHT22;2391;47.212;7.542;2023-06-14T07:46:38;25.40;45.20
4755;DHT22;2391;47.212;7.542;2023-06-14T07:49:03;25.50;45.70
4755;DHT22;2391;47.212;7.542;2023-06-14T07:51:29;25.50;46.30
4755;DHT22;2391;47.212;7.542;2023-06-14T07:53:55;25.60;45.60
4755;DHT22;2391;47.212;7.542;2023-06-14T07:56:21;25.70;45.70
4755;DHT22;2391;47.212;7.542;2023-06-14T07:58:48;25.70;45.70
4755;DHT22;2391;47.212;7.542;2023-06-14T08:01:14;25.80;45.00
4755;DHT22;2391;47.212;7.542;2023-06-14T08:03:40;25.90;43.50
4755;DHT22;2391;47.212;7.542;2023-06-14T08:06:06;25.80;43.20
4755;DHT22;2391;47.212;7.542;2023-06-14T08:08:33;25.80;43.00
4755;DHT22;2391;47.212;7.542;2023-06-14T08:10:59;25.80;42.90
4755;DHT22;2391;47.212;7.542;2023-06-14T08:13:24;25.80;44.50
4755;DHT22;2391;47.212;7.542;2023-06-14T08:15:50;25.90;43.50
4755;DHT22;2391;47.212;7.542;2023-06-14T08:18:16;25.90;42.30
4755;DHT22;2391;47.212;7.542;2023-06-14T08:20:42;25.90;41.60
4755;DHT22;2391;47.212;7.542;2023-06-14T08:23:07;25.90;40.50
4755;DHT22;2391;47.212;7.542;2023-06-14T08:25:34;25.90;39.80
4755;DHT22;2391;47.212;7.542;2023-06-14T08:28:00;25.70;40.60
4755;DHT22;2391;47.212;7.542;2023-06-14T08:30:26;25.70;40.90
4755;DHT22;2391;47.212;7.542;2023-06-14T08:32:52;25.70;40.70
4755;DHT22;2391;47.212;7.542;2023-06-14T08:35:20;25.70;41.30
4755;DHT22;2391;47.212;7.542;2023-06-14T08:37:45;25.70;41.60
4755;DHT22;2391;47.212;7.542;2023-06-14T08:40:22;25.70;41.30
4755;DHT22;2391;47.212;7.542;2023-06-14T08:42:51;25.80;40.60
4755;DHT22;2391;47.212;7.542;2023-06-14T08:45:23;25.80;40.40
4755;DHT22;2391;47.212;7.542;2023-06-14T08:47:50;25.80;40.20
4755;DHT22;2391;47.212;7.542;2023-06-14T08:50:21;25.90;40.00
4755;DHT22;2391;47.212;7.542;2023-06-14T08:52:52;26.00;40.00
4755;DHT22;2391;47.212;7.542;2023-06-14T08:55:18;26.00;40.30
4755;DHT22;2391;47.212;7.542;2023-06-14T08:57:46;26.00;40.00
4755;DHT22;2391;47.212;7.542;2023-06-14T09:00:13;26.10;39.60
4755;DHT22;2391;47.212;7.542;2023-06-14T09:02:39;26.20;39.00
4755;DHT22;2391;47.212;7.542;2023-06-14T09:05:12;26.20;38.60
4755;DHT22;2391;47.212;7.542;2023-06-14T09:07:42;26.10;39.10
4755;DHT22;2391;47.212;7.542;2023-06-14T09:10:13;26.10;39.20
4755;DHT22;2391;47.212;7.542;2023-06-14T09:12:39;26.00;39.40
4755;DHT22;2391;47.212;7.542;2023-06-14T09:15:06;26.00;39.70
4755;DHT22;2391;47.212;7.542;2023-06-14T09:17:38;26.00;39.50
4755;DHT22;2391;47.212;7.542;2023-06-14T09:20:06;26.10;38.60
4755;DHT22;2391;47.212;7.542;2023-06-14T09:22:32;26.10;38.30
4755;DHT22;2391;47.212;7.542;2023-06-14T09:24:59;26.10;38.00
4755;DHT22;2391;47.212;7.542;2023-06-14T09:27:26;26.10;38.30
4755;DHT22;2391;47.212;7.542;2023-06-14T09:29:52;26.10;38.30
4755;DHT22;2391;47.212;7.542;2023-06-14T09:32:18;26.10;38.80
4755;DHT22;2391;47.212;7.542;2023-06-14T09:34:45;26.10;38.30
4755;DHT22;2391;47.212;7.542;2023-06-14T09:37:11;26.20;38.50
4755;DHT22;2391;47.212;7.542;2023-06-14T09:39:50;26.20;38.50
4755;DHT22;2391;47.212;7.542;2023-06-14T09:42:17;26.30;39.20
4755;DHT22;2391;47.212;7.542;2023-06-14T09:44:47;26.40;38.60
4755;DHT22;2391;47.212;7.542;2023-06-14T09:47:14;26.40;38.90
4755;DHT22;2391;47.212;7.542;2023-06-14T09:49:41;26.50;39.00
4755;DHT22;2391;47.212;7.542;2023-06-14T09:52:15;26.60;39.60
4755;DHT22;2391;47.212;7.542;2023-06-14T09:54:41;26.70;38.40
4755;DHT22;2391;47.212;7.542;2023-06-14T09:57:13;26.70;38.40
4755;DHT22;2391;47.212;7.542;2023-06-14T09:59:43;26.70;37.80
4755;DHT22;2391;47.212;7.542;2023-06-14T10:02:31;26.70;38.80
4755;DHT22;2391;47.212;7.542;2023-06-14T10:04:46;26.70;39.00
4755;DHT22;2391;47.212;7.542;2023-06-14T10:07:18;26.80;38.50
4755;DHT22;2391;47.212;7.542;2023-06-14T10:09:46;26.90;38.80
4755;DHT22;2391;47.212;7.542;2023-06-14T10:12:17;26.90;38.50
4755;DHT22;2391;47.212;7.542;2023-06-14T10:14:44;27.00;38.30
4755;DHT22;2391;47.212;7.542;2023-06-14T10:17:12;26.90;38.40
4755;DHT22;2391;47.212;7.542;2023-06-14T10:19:48;26.90;38.60
4755;DHT22;2391;47.212;7.542;2023-06-14T10:22:23;27.00;38.10
4755;DHT22;2391;47.212;7.542;2023-06-14T10:24:50;27.00;37.30
4755;DHT22;2391;47.212;7.542;2023-06-14T10:27:16;27.10;37.20
4755;DHT22;2391;47.212;7.542;2023-06-14T10:32:25;27.20;37.50
4755;DHT22;2391;47.212;7.542;2023-06-14T10:34:54;27.20;37.10
4755;DHT22;2391;47.212;7.542;2023-06-14T10:37:21;27.30;36.60
4755;DHT22;2391;47.212;7.542;2023-06-14T10:39:47;27.30;35.70
4755;DHT22;2391;47.212;7.542;2023-06-14T10:42:13;27.30;35.20
4755;DHT22;2391;47.212;7.542;2023-06-14T10:44:42;27.30;35.40
4755;DHT22;2391;47.212;7.542;2023-06-14T10:49:55;27.40;36.20
4755;DHT22;2391;47.212;7.542;2023-06-14T10:52:21;27.40;35.90
4755;DHT22;2391;47.212;7.542;2023-06-14T10:57:42;27.50;36.40
4755;DHT22;2391;47.212;7.542;2023-06-14T11:00:10;27.50;36.50
4755;DHT22;2391;47.212;7.542;2023-06-14T11:11:07;27.50;36.00
4755;DHT22;2391;47.212;7.542;2023-06-14T11:13:33;27.40;36.40
4755;DHT22;2391;47.212;7.542;2023-06-14T11:15:59;27.50;36.70
4755;DHT22;2391;47.212;7.542;2023-06-14T11:18:25;27.60;36.20
4755;DHT22;2391;47.212;7.542;2023-06-14T11:20:53;27.60;36.50
4755;DHT22;2391;47.212;7.542;2023-06-14T11:23:20;27.50;36.90
4755;DHT22;2391;47.212;7.542;2023-06-14T11:25:53;27.60;37.30
4755;DHT22;2391;47.212;7.542;2023-06-14T11:28:19;27.70;36.30
4755;DHT22;2391;47.212;7.542;2023-06-14T11:30:47;27.70;36.60
4755;DHT22;2391;47.212;7.542;2023-06-14T11:33:18;27.70;36.10
4755;DHT22;2391;47.212;7.542;2023-06-14T11:35:44;27.70;36.40
4755;DHT22;2391;47.212;7.542;2023-06-14T11:38:11;27.80;36.80
4755;DHT22;2391;47.212;7.542;2023-06-14T11:40:38;27.80;35.90
4755;DHT22;2391;47.212;7.542;2023-06-14T11:43:04;27.80;35.30
4755;DHT22;2391;47.212;7.542;2023-06-14T11:45:30;27.80;35.80
4755;DHT22;2391;47.212;7.542;2023-06-14T11:47:58;27.80;35.70
4755;DHT22;2391;47.212;7.542;2023-06-14T11:50:24;27.70;36.40
4755;DHT22;2391;47.212;7.542;2023-06-14T11:52:54;27.70;36.20
4755;DHT22;2391;47.212;7.542;2023-06-14T11:55:22;27.80;36.20
4755;DHT22;2391;47.212;7.542;2023-06-14T11:57:48;27.80;35.50
4755;DHT22;2391;47.212;7.542;2023-06-14T12:00:15;27.70;36.20
4755;DHT22;2391;47.212;7.542;2023-06-14T12:02:41;27.70;37.90
4755;DHT22;2391;47.212;7.542;2023-06-14T12:05:07;27.90;37.70
4755;DHT22;2391;47.212;7.542;2023-06-14T12:07:38;28.00;37.40
4755;DHT22;2391;47.212;7.542;2023-06-14T12:10:08;28.10;36.00
4755;DHT22;2391;47.212;7.542;2023-06-14T12:12:37;28.10;36.20
4755;DHT22;2391;47.212;7.542;2023-06-14T12:15:04;28.20;36.50
4755;DHT22;2391;47.212;7.542;2023-06-14T12:17:35;28.20;36.00
4755;DHT22;2391;47.212;7.542;2023-06-14T12:20:06;28.20;35.70
4755;DHT22;2391;47.212;7.542;2023-06-14T12:22:57;28.20;35.60
4755;DHT22;2391;47.212;7.542;2023-06-14T12:28:05;28.30;35.70
4755;DHT22;2391;47.212;7.542;2023-06-14T12:30:31;28.30;35.60
4755;DHT22;2391;47.212;7.542;2023-06-14T12:32:57;28.30;35.60
4755;DHT22;2391;47.212;7.542;2023-06-14T12:35:23;28.30;35.70
4755;DHT22;2391;47.212;7.542;2023-06-14T12:37:48;28.40;36.40
4755;DHT22;2391;47.212;7.542;2023-06-14T12:40:14;28.50;36.20
4755;DHT22;2391;47.212;7.542;2023-06-14T12:42:41;28.50;35.90
4755;DHT22;2391;47.212;7.542;2023-06-14T12:45:08;28.50;35.80
4755;DHT22;2391;47.212;7.542;2023-06-14T12:47:33;28.60;35.30
4755;DHT22;2391;47.212;7.542;2023-06-14T12:49:59;28.60;35.20
4755;DHT22;2391;47.212;7.542;2023-06-14T12:52:25;28.60;36.00
4755;DHT22;2391;47.212;7.542;2023-06-14T12:54:50;28.60;36.20
4755;DHT22;2391;47.212;7.542;2023-06-14T12:57:16;28.70;36.80
4755;DHT22;2391;47.212;7.542;2023-06-14T12:59:42;28.70;36.40
4755;DHT22;2391;47.212;7.542;2023-06-14T13:02:16;28.70;35.70
4755;DHT22;2391;47.212;7.542;2023-06-14T13:04:43;28.70;36.00
4755;DHT22;2391;47.212;7.542;2023-06-14T13:07:09;28.70;35.80
4755;DHT22;2391;47.212;7.542;2023-06-14T13:09:41;28.70;35.30
4755;DHT22;2391;47.212;7.542;2023-06-14T13:12:07;28.70;36.00
4755;DHT22;2391;47.212;7.542;2023-06-14T13:14:33;28.60;35.70
4755;DHT22;2391;47.212;7.542;2023-06-14T13:16:59;28.60;35.90
4755;DHT22;2391;47.212;7.542;2023-06-14T13:19:25;28.60;35.30
4755;DHT22;2391;47.212;7.542;2023-06-14T13:21:51;28.60;36.00
4755;DHT22;2391;47.212;7.542;2023-06-14T13:24:16;28.70;35.60
4755;DHT22;2391;47.212;7.542;2023-06-14T13:26:42;28.80;35.60
4755;DHT22;2391;47.212;7.542;2023-06-14T13:29:09;28.90;35.70
4755;DHT22;2391;47.212;7.542;2023-06-14T13:31:34;28.90;37.00
4755;DHT22;2391;47.212;7.542;2023-06-14T13:34:00;28.80;35.80
4755;DHT22;2391;47.212;7.542;2023-06-14T13:36:26;28.70;36.50
4755;DHT22;2391;47.212;7.542;2023-06-14T13:38:52;28.80;36.70
4755;DHT22;2391;47.212;7.542;2023-06-14T13:41:18;28.80;36.70
4755;DHT22;2391;47.212;7.542;2023-06-14T13:43:44;28.80;36.20
4755;DHT22;2391;47.212;7.542;2023-06-14T13:46:09;28.80;36.20
4755;DHT22;2391;47.212;7.542;2023-06-14T13:48:35;28.90;36.70
4755;DHT22;2391;47.212;7.542;2023-06-14T13:51:01;28.90;35.60
4755;DHT22;2391;47.212;7.542;2023-06-14T13:53:28;29.00;36.50
4755;DHT22;2391;47.212;7.542;2023-06-14T13:55:54;29.00;36.30
4755;DHT22;2391;47.212;7.542;2023-06-14T13:58:20;29.00;36.10
4755;DHT22;2391;47.212;7.542;2023-06-14T14:00:46;29.00;36.10
4755;DHT22;2391;47.212;7.542;2023-06-14T14:03:11;29.00;36.50
4755;DHT22;2391;47.212;7.542;2023-06-14T14:05:37;29.00;36.40
4755;DHT22;2391;47.212;7.542;2023-06-14T14:08:03;29.00;36.40
4755;DHT22;2391;47.212;7.542;2023-06-14T14:10:29;29.00;36.00
4755;DHT22;2391;47.212;7.542;2023-06-14T14:12:55;29.00;36.70
4755;DHT22;2391;47.212;7.542;2023-06-14T14:15:22;29.10;36.30
4755;DHT22;2391;47.212;7.542;2023-06-14T14:17:48;29.10;36.10
4755;DHT22;2391;47.212;7.542;2023-06-14T14:20:14;29.20;36.70
4755;DHT22;2391;47.212;7.542;2023-06-14T14:22:42;29.20;36.80
4755;DHT22;2391;47.212;7.542;2023-06-14T14:25:08;29.20;36.70
4755;DHT22;2391;47.212;7.542;2023-06-14T14:27:34;29.20;36.60
4755;DHT22;2391;47.212;7.542;2023-06-14T14:30:00;29.20;36.30
4755;DHT22;2391;47.212;7.542;2023-06-14T14:32:25;29.20;36.60
4755;DHT22;2391;47.212;7.542;2023-06-14T14:34:51;29.30;37.10
4755;DHT22;2391;47.212;7.542;2023-06-14T14:37:17;29.30;37.00
4755;DHT22;2391;47.212;7.542;2023-06-14T14:39:44;29.30;36.90
4755;DHT22;2391;47.212;7.542;2023-06-14T14:42:11;29.30;37.40
4755;DHT22;2391;47.212;7.542;2023-06-14T14:44:38;29.40;37.10
4755;DHT22;2391;47.212;7.542;2023-06-14T14:47:05;29.50;36.90
4755;DHT22;2391;47.212;7.542;2023-06-14T14:49:32;29.40;38.30
4755;DHT22;2391;47.212;7.542;2023-06-14T14:51:58;29.30;37.80
4755;DHT22;2391;47.212;7.542;2023-06-14T14:54:23;29.30;37.60
4755;DHT22;2391;47.212;7.542;2023-06-14T14:56:51;29.20;37.80
4755;DHT22;2391;47.212;7.542;2023-06-14T14:59:17;29.20;37.90
4755;DHT22;2391;47.212;7.542;2023-06-14T15:01:44;29.20;37.90
4755;DHT22;2391;47.212;7.542;2023-06-14T15:04:11;29.30;37.80
4755;DHT22;2391;47.212;7.542;2023-06-14T15:06:37;29.30;38.40
4755;DHT22;2391;47.212;7.542;2023-06-14T15:09:05;29.40;38.20
4755;DHT22;2391;47.212;7.542;2023-06-14T15:11:31;29.50;37.50
4755;DHT22;2391;47.212;7.542;2023-06-14T15:13:57;29.60;37.90
4755;DHT22;2391;47.212;7.542;2023-06-14T15:16:23;29.60;38.30
4755;DHT22;2391;47.212;7.542;2023-06-14T15:18:50;29.60;38.60
4755;DHT22;2391;47.212;7.542;2023-06-14T15:21:15;29.70;39.40
4755;DHT22;2391;47.212;7.542;2023-06-14T15:23:41;29.70;38.50
4755;DHT22;2391;47.212;7.542;2023-06-14T15:26:07;29.70;38.30
4755;DHT22;2391;47.212;7.542;2023-06-14T15:28:33;29.60;38.20
4755;DHT22;2391;47.212;7.542;2023-06-14T15:30:59;29.60;38.10
4755;DHT22;2391;47.212;7.542;2023-06-14T15:33:25;29.60;38.70
4755;DHT22;2391;47.212;7.542;2023-06-14T15:35:51;29.60;39.00
4755;DHT22;2391;47.212;7.542;2023-06-14T15:38:17;29.70;39.20
4755;DHT22;2391;47.212;7.542;2023-06-14T15:40:43;29.80;39.10
4755;DHT22;2391;47.212;7.542;2023-06-14T15:43:09;29.80;39.30
4755;DHT22;2391;47.212;7.542;2023-06-14T15:45:35;29.80;40.10
4755;DHT22;2391;47.212;7.542;2023-06-14T15:48:02;29.80;39.40
4755;DHT22;2391;47.212;7.542;2023-06-14T15:50:28;29.90;39.70
4755;DHT22;2391;47.212;7.542;2023-06-14T15:52:54;29.90;39.70
4755;DHT22;2391;47.212;7.542;2023-06-14T15:55:20;29.90;40.20
4755;DHT22;2391;47.212;7.542;2023-06-14T15:57:46;29.90;40.20
4755;DHT22;2391;47.212;7.542;2023-06-14T16:00:12;29.80;39.60
4755;DHT22;2391;47.212;7.542;2023-06-14T16:02:38;29.80;39.50
4755;DHT22;2391;47.212;7.542;2023-06-14T16:05:04;29.80;39.90
4755;DHT22;2391;47.212;7.542;2023-06-14T16:07:31;29.80;40.10
4755;DHT22;2391;47.212;7.542;2023-06-14T16:09:57;29.90;40.00
4755;DHT22;2391;47.212;7.542;2023-06-14T16:12:22;29.90;40.20
4755;DHT22;2391;47.212;7.542;2023-06-14T16:14:48;29.80;39.60
4755;DHT22;2391;47.212;7.542;2023-06-14T16:17:14;29.70;40.10
4755;DHT22;2391;47.212;7.542;2023-06-14T16:19:39;29.70;40.10
4755;DHT22;2391;47.212;7.542;2023-06-14T16:22:05;29.60;40.10